Time;durP1;ratioP1;P1;durP2;ratioP2;P2;SDS_P1;SDS_P2;PMS_P1;PMS_P2;Temp;Humidity;BMP_temperature;BMP_pressure;BME280_temperature;BME280_humidity;BME280_pressure;Samples;Min_cycle;Max_cycle;Signal;HPM_P1;HPM_P2
2022/05/24 00:00:58;;;;;;;2.63;2.10;;;18.30;99.90;;;18.33;100.00;99371.22;4969028;28;20062;-77
2022/05/24 00:03:25;;;;;;;2.92;2.30;;;18.30;99.90;;;18.34;100.00;99387.09;4971114;28;20054;-77
2022/05/24 00:05:53;;;;;;;4.40;2.30;;;19.10;99.90;;;18.28;100.00;99385.75;4988154;28;20058;-77
2022/05/24 00:08:21;;;;;;;2.58;2.38;;;18.30;99.90;;;18.36;100.00;99382.53;4996037;28;20172;-77
2022/05/24 00:10:48;;;;;;;3.35;2.50;;;18.20;99.90;;;18.35;100.00;99383.47;4990882;28;20058;-77
2022/05/24 00:13:15;;;;;;;3.05;2.38;;;18.20;99.90;;;18.31;100.00;99379.31;4992750;28;20125;-77
2022/05/24 00:15:43;;;;;;;3.30;2.78;;;18.20;99.90;;;18.33;100.00;99379.22;4974501;28;20487;-78
2022/05/24 00:18:23;;;;;;;3.03;2.72;;;18.20;99.90;;;18.33;100.00;99390.72;4991991;28;20245;-78
2022/05/24 00:20:57;;;;;;;4.22;2.90;;;18.20;99.90;;;18.26;100.00;99394.78;4991172;28;20482;-77
2022/05/24 00:23:27;;;;;;;3.13;2.60;;;18.20;99.90;;;18.33;100.00;99403.19;4970533;28;20050;-77
2022/05/24 00:26:34;;;;;;;3.47;2.63;;;18.20;99.90;;;18.33;100.00;99393.38;4972567;28;20043;-77
2022/05/24 00:29:01;;;;;;;3.72;2.63;;;18.20;99.90;;;18.19;100.00;99393.53;4973516;28;20722;-78
2022/05/24 00:31:28;;;;;;;3.10;2.63;;;18.20;99.90;;;18.25;100.00;99391.25;4973969;28;20562;-77
2022/05/24 00:33:57;;;;;;;2.75;2.25;;;18.20;99.90;;;18.22;100.00;99388.00;4971760;28;20639;-77
2022/05/24 00:36:24;;;;;;;3.72;2.60;;;18.20;99.90;;;18.24;100.00;99389.56;4969707;28;20047;-77
2022/05/24 00:38:51;;;;;;;3.80;2.53;;;18.10;99.90;;;18.21;100.00;99384.47;4957670;28;20172;-77
2022/05/24 00:41:45;;;;;;;3.15;2.70;;;18.10;99.90;;;18.21;100.00;99387.13;4970091;28;20062;-77
2022/05/24 00:44:28;;;;;;;4.13;3.38;;;18.10;99.90;;;18.22;100.00;99386.16;4964577;28;20063;-77
2022/05/24 00:47:07;;;;;;;3.58;2.40;;;18.00;99.90;;;18.12;100.00;99385.97;4970435;28;20042;-77
2022/05/24 00:50:03;;;;;;;3.88;2.80;;;18.20;99.90;;;18.13;100.00;99387.66;4954991;28;20057;-77
2022/05/24 00:52:42;;;;;;;5.22;2.60;;;18.10;99.90;;;18.19;100.00;99385.56;4939793;28;20130;-77
2022/05/24 00:55:14;;;;;;;3.40;2.88;;;18.40;99.90;;;18.10;100.00;99385.22;4969924;28;20042;-79
2022/05/24 00:58:18;;;;;;;4.70;3.00;;;18.10;99.90;;;18.16;100.00;99380.41;4953744;28;20054;-78
2022/05/24 01:00:45;;;;;;;3.88;3.13;;;18.20;99.90;;;18.07;100.00;99377.47;4969313;28;20549;-77
2022/05/24 01:03:15;;;;;;;6.43;3.35;;;18.10;99.90;;;18.17;100.00;99382.97;4969277;28;20050;-77
2022/05/24 01:05:43;;;;;;;4.05;2.70;;;;;;;18.17;100.00;99385.66;4971510;28;20058;-77
2022/05/24 01:08:10;;;;;;;3.10;2.58;;;;;;;18.16;100.00;99391.06;4987309;28;20412;-77
2022/05/24 01:10:50;;;;;;;3.15;2.80;;;18.10;99.90;;;18.21;100.00;99389.78;4971666;28;20527;-78
2022/05/24 01:13:23;;;;;;;3.30;3.00;;;18.10;99.90;;;18.16;100.00;99396.41;4971379;28;20662;-77
2022/05/24 01:15:51;;;;;;;3.65;3.00;;;;;;;18.14;100.00;99388.53;4971818;28;20054;-77
2022/05/24 01:18:23;;;;;;;5.40;3.17;;;18.10;99.90;;;18.08;100.00;99388.97;4972040;28;20050;-77
2022/05/24 01:21:02;;;;;;;4.97;3.38;;;18.00;99.90;;;18.21;100.00;99383.63;4971318;28;20077;-77
2022/05/24 01:24:22;;;;;;;8.35;4.05;;;18.00;99.90;;;18.21;100.00;99389.78;4973120;28;20043;-77
2022/05/24 01:26:56;;;;;;;3.55;3.17;;;18.00;99.90;;;18.24;100.00;99386.06;4971110;28;20054;-77
2022/05/24 01:29:26;;;;;;;4.20;3.17;;;18.00;99.90;;;18.22;100.00;99374.69;4974483;28;20118;-77
2022/05/24 01:37:30;;;;;;;3.92;3.50;;;18.10;99.90;;;18.15;100.00;99379.59;4977279;28;20515;-78
2022/05/24 01:39:59;;;;;;;3.47;3.17;;;18.00;99.90;;;18.07;100.00;99366.81;4972518;28;20078;-77
2022/05/24 01:42:28;;;;;;;7.32;3.67;;;18.00;99.90;;;18.04;100.00;99374.16;4974921;28;20065;-78
2022/05/24 01:45:07;;;;;;;6.70;3.33;;;20.20;99.90;;;18.11;100.00;99380.78;4975618;28;20122;-78
2022/05/24 01:47:42;;;;;;;3.90;3.35;;;17.80;99.90;;;18.04;100.00;99372.38;4979059;28;20039;-77
2022/05/24 01:50:18;;;;;;;3.65;3.35;;;17.90;99.90;;;17.97;100.00;99369.25;4960279;28;20165;-78
2022/05/24 01:52:59;;;;;;;4.07;3.42;;;17.60;99.90;;;18.09;100.00;99359.59;4978204;28;20504;-78
2022/05/24 01:55:54;;;;;;;3.90;3.17;;;17.90;99.90;;;18.05;100.00;99360.75;4976706;28;20097;-78
2022/05/24 01:58:26;;;;;;;5.53;3.92;;;17.90;99.90;;;18.04;100.00;99358.19;4977395;28;20079;-78
2022/05/24 02:01:05;;;;;;;4.20;3.38;;;18.00;99.90;;;17.98;100.00;99364.78;4960947;28;20054;-78
2022/05/24 02:03:38;;;;;;;4.72;3.63;;;;;;;17.88;100.00;99367.25;4975753;28;20660;-77
2022/05/24 02:06:38;;;;;;;4.55;3.40;;;17.60;99.90;;;17.91;100.00;99361.69;4974769;28;20065;-77
2022/05/24 02:09:07;;;;;;;4.03;3.63;;;17.90;99.90;;;17.94;100.00;99363.31;4946306;28;20046;-78
2022/05/24 02:11:36;;;;;;;4.15;3.75;;;;;;;17.80;100.00;99362.47;4974686;28;20047;-77
2022/05/24 02:14:20;;;;;;;5.68;4.35;;;17.80;99.90;;;17.88;100.00;99369.06;4972411;28;20058;-77
2022/05/24 02:16:54;;;;;;;5.78;3.45;;;17.80;99.90;;;17.81;100.00;99371.31;4973404;28;20173;-78
2022/05/24 02:19:24;;;;;;;4.68;3.50;;;17.70;99.90;;;17.76;100.00;99362.78;4969649;28;20054;-77
2022/05/24 02:21:58;;;;;;;3.97;3.57;;;17.70;99.90;;;17.75;100.00;99359.28;4972331;28;20058;-77
2022/05/24 02:24:27;;;;;;;6.22;3.90;;;17.70;99.90;;;17.76;100.00;99341.50;4974132;28;20289;-78
2022/05/24 02:26:57;;;;;;;4.50;3.63;;;;;;;17.80;100.00;99340.34;4975276;28;20047;-78
2022/05/24 02:29:24;;;;;;;4.68;4.18;;;;;;;17.72;100.00;99335.56;4990193;28;20049;-78
2022/05/24 02:31:52;;;;;;;5.88;4.22;;;;;;;17.66;100.00;99331.53;4975893;28;20045;-78
2022/05/24 02:34:19;;;;;;;4.18;3.78;;;;;;;17.68;100.00;99332.25;4977121;28;20043;-78
2022/05/24 02:36:47;;;;;;;4.03;3.63;;;;;;;17.65;100.00;99335.16;4990095;28;20050;-77
2022/05/24 02:39:14;;;;;;;7.80;4.60;;;18.20;99.90;;;17.65;100.00;99342.25;4989109;28;20043;-78
2022/05/24 02:41:44;;;;;;;4.55;4.10;;;;;;;17.60;100.00;99339.09;4975114;28;20039;-77
2022/05/24 02:44:15;;;;;;;5.25;4.00;;;17.50;99.90;;;17.55;100.00;99339.41;4990816;28;20038;-78
2022/05/24 02:46:47;;;;;;;4.20;3.83;;;17.60;99.90;;;17.51;100.00;99335.25;4960135;28;20055;-78
2022/05/24 02:49:15;;;;;;;5.25;3.70;;;;;;;17.53;100.00;99334.16;4974087;28;20049;-77
2022/05/24 02:51:44;;;;;;;4.82;3.85;;;;;;;17.43;100.00;99335.78;4977803;28;20495;-78
2022/05/24 02:54:12;;;;;;;4.68;4.00;;;17.60;99.90;;;17.47;100.00;99336.41;4994671;28;20054;-77
2022/05/24 02:56:40;;;;;;;4.70;4.22;;;;;;;17.40;100.00;99333.31;4980137;28;20074;-78
2022/05/24 02:59:07;;;;;;;3.95;3.53;;;;;;;17.44;100.00;99338.31;4980117;28;20057;-78
2022/05/24 03:01:34;;;;;;;4.32;3.63;;;;;;;17.43;100.00;99341.94;4976491;28;20641;-78
2022/05/24 03:04:02;;;;;;;3.70;3.00;;;;;;;17.39;100.00;99347.56;4978004;28;20055;-79
2022/05/24 03:09:33;;;;;;;7.40;3.58;;;;;;;17.38;100.00;99343.22;4994677;28;20122;-78
2022/05/24 03:09:35;;;;;;;5.10;2.97;;;;;;;17.31;100.00;99350.75;4979245;28;20061;-77
2022/05/24 03:14:56;;;;;;;3.30;2.85;;;17.10;99.90;;;17.24;100.00;99352.97;4984841;28;20705;-78
2022/05/24 03:17:25;;;;;;;2.80;2.60;;;16.80;99.90;;;17.23;100.00;99345.97;4984608;28;20102;-78
2022/05/24 03:19:52;;;;;;;4.55;2.90;;;17.20;99.90;;;17.22;100.00;99348.75;4982898;28;20050;-78
2022/05/24 03:22:19;;;;;;;3.00;2.30;;;;;;;17.13;100.00;99355.53;4985118;28;20046;-77
2022/05/24 03:24:47;;;;;;;2.75;2.28;;;;;;;17.06;100.00;99365.72;4984626;28;20141;-78
2022/05/24 03:27:17;;;;;;;3.00;2.17;;;;;;;17.14;100.00;99360.72;4980613;28;20043;-78
2022/05/24 03:29:47;;;;;;;3.38;2.63;;;17.10;99.90;;;17.09;100.00;99354.03;4995977;28;20416;-77
2022/05/24 03:32:18;;;;;;;10.95;2.92;;;17.10;99.90;;;17.10;100.00;99353.09;4980147;28;20050;-78
2022/05/24 03:34:46;;;;;;;4.07;2.70;;;17.90;99.90;;;17.12;100.00;99354.69;4977634;28;20050;-78
2022/05/24 03:37:14;;;;;;;3.72;2.80;;;;;;;17.07;100.00;99348.81;4979391;28;20070;-77
2022/05/24 03:39:41;;;;;;;2.75;2.40;;;;;;;17.00;100.00;99347.53;4975353;28;20153;-78
2022/05/24 03:42:09;;;;;;;4.07;2.50;;;16.80;99.90;;;17.01;100.00;99351.88;4978016;28;20051;-78
2022/05/24 03:44:36;;;;;;;4.80;2.35;;;;;;;17.06;100.00;99355.09;4981705;28;20138;-79
2022/05/24 03:47:04;;;;;;;3.67;2.50;;;16.90;99.90;;;16.97;100.00;99353.88;4983356;28;20051;-78
2022/05/24 03:49:32;;;;;;;3.25;2.95;;;;;;;16.97;100.00;99356.53;4982851;28;20057;-78
2022/05/24 03:51:59;;;;;;;2.65;2.45;;;;;;;16.91;100.00;99354.28;4984543;28;20051;-78
2022/05/24 03:54:27;;;;;;;3.17;2.70;;;;;;;16.90;100.00;99349.91;5000501;28;20046;-79
2022/05/24 03:59:40;;;;;;;2.97;2.40;;;;;;;16.91;100.00;99343.66;4999602;28;20548;-79
2022/05/24 04:02:08;;;;;;;2.85;2.58;;;;;;;16.99;100.00;99348.47;5000796;28;20138;-79
2022/05/24 04:04:36;;;;;;;3.53;2.38;;;;;;;16.99;100.00;99349.34;5001120;28;20058;-79
2022/05/24 04:07:03;;;;;;;3.95;2.42;;;;;;;16.97;100.00;99356.53;4995930;28;20054;-79
2022/05/24 04:09:34;;;;;;;5.22;2.40;;;16.90;99.90;;;17.02;100.00;99366.91;4972537;28;20043;-78
2022/05/24 04:12:02;;;;;;;3.45;2.60;;;;;;;17.00;100.00;99371.44;4968884;28;20050;-78
2022/05/24 04:14:32;;;;;;;3.00;2.70;;;16.90;99.90;;;17.01;100.00;99373.13;4969882;28;20698;-78
2022/05/24 04:17:00;;;;;;;4.05;2.58;;;16.90;99.90;;;16.98;100.00;99379.50;4976807;28;20053;-78
2022/05/24 04:19:27;;;;;;;2.92;2.63;;;;;;;17.02;100.00;99380.19;4978514;28;20042;-77
2022/05/24 04:21:55;;;;;;;3.30;3.00;;;16.70;99.90;;;17.02;100.00;99377.53;4993599;28;20051;-78
2022/05/24 04:24:22;;;;;;;2.83;2.47;;;;;;;17.04;100.00;99380.94;4955295;28;20118;-78
2022/05/24 04:26:50;;;;;;;3.17;2.72;;;16.70;99.90;;;16.99;100.00;99386.53;4969018;28;20053;-78
2022/05/24 04:29:18;;;;;;;4.32;3.22;;;;;;;17.07;100.00;99394.00;4969379;28;20590;-77
2022/05/24 04:31:45;;;;;;;3.72;2.60;;;16.90;99.90;;;17.10;100.00;99387.66;4971487;28;20046;-79
2022/05/24 04:34:14;;;;;;;4.97;2.67;;;17.30;99.90;;;17.06;100.00;99387.00;4985575;28;20046;-79
2022/05/24 04:36:41;;;;;;;2.90;2.50;;;16.80;99.90;;;17.15;100.00;99375.72;4970044;28;20046;-78
2022/05/24 04:39:08;;;;;;;7.25;2.42;;;;;;;17.14;100.00;99381.16;4970179;28;20050;-76
2022/05/24 04:44:21;;;;;;;3.03;2.63;;;17.10;99.90;;;17.23;100.00;99396.47;4968454;28;20502;-78
2022/05/24 04:49:40;;;;;;;6.03;3.35;;;17.10;99.90;;;17.22;100.00;99399.25;4982026;28;20046;-78
2022/05/24 04:52:13;;;;;;;2.65;2.40;;;17.10;99.90;;;17.26;100.00;99390.97;4981735;28;20112;-77
2022/05/24 04:54:43;;;;;;;5.25;2.70;;;17.10;99.90;;;17.26;100.00;99398.06;4964379;28;20053;-77
2022/05/24 04:57:12;;;;;;;2.92;2.30;;;17.20;99.90;;;17.34;100.00;99408.19;4980849;28;20046;-75
2022/05/24 04:59:39;;;;;;;5.15;3.08;;;17.50;99.90;;;17.29;100.00;99404.03;4965656;28;20515;-78
2022/05/24 05:02:11;;;;;;;3.85;2.67;;;17.20;99.90;;;17.31;100.00;99411.91;4996595;28;20132;-80
2022/05/24 05:04:38;;;;;;;9.25;3.33;;;17.30;99.90;;;17.38;100.00;99407.88;4996958;28;20074;-77
2022/05/24 05:07:06;;;;;;;3.15;2.85;;;17.30;99.90;;;17.35;100.00;99401.91;4993529;28;20118;-78
2022/05/24 05:09:38;;;;;;;4.80;2.80;;;17.30;99.90;;;17.37;100.00;99408.84;4965913;28;20793;-78
2022/05/24 05:12:09;;;;;;;3.58;2.92;;;17.60;99.90;;;17.38;100.00;99418.53;4975786;28;20046;-77
2022/05/24 05:14:39;;;;;;;4.95;3.15;;;17.40;99.90;;;17.41;100.00;99414.81;4973720;28;20042;-79
2022/05/24 05:17:11;;;;;;;3.42;2.47;;;14.80;99.90;;;17.35;100.00;99415.22;4976227;28;20043;-79
2022/05/24 05:19:39;;;;;;;3.53;2.30;;;17.30;99.90;;;17.36;100.00;99412.47;4953905;28;20077;-77
2022/05/24 05:22:07;;;;;;;3.25;2.00;;;17.30;99.90;;;17.35;100.00;99423.19;4970513;28;20081;-78
2022/05/24 05:24:35;;;;;;;4.78;2.22;;;;;;;17.42;100.00;99429.81;4971831;28;20047;-79
2022/05/24 05:27:03;;;;;;;3.10;1.95;;;17.50;99.90;;;17.37;100.00;99432.78;4972261;28;20061;-79
2022/05/24 05:32:29;;;;;;;2.92;2.20;;;17.30;99.90;;;17.50;100.00;99442.59;4979065;28;20174;-79
2022/05/24 05:34:57;;;;;;;6.20;3.10;;;17.30;99.90;;;17.49;100.00;99444.38;4969957;28;20069;-79
2022/05/24 05:37:29;;;;;;;3.05;2.55;;;17.30;99.90;;;17.47;100.00;99438.31;4970601;28;20053;-80
2022/05/24 05:39:56;;;;;;;3.30;2.88;;;;;;;17.54;100.00;99444.06;4970073;28;20496;-79
2022/05/24 05:42:24;;;;;;;3.45;2.45;;;;;;;17.48;100.00;99455.97;4971944;28;20515;-78
2022/05/24 05:44:52;;;;;;;4.75;2.30;;;;;;;17.52;100.00;99475.25;4971679;28;20069;-79
2022/05/24 05:47:20;;;;;;;5.88;2.58;;;;;;;17.44;100.00;99473.09;4986207;28;20442;-80
2022/05/24 05:49:47;;;;;;;5.18;2.10;;;;;;;17.42;100.00;99488.31;4986234;28;20066;-80
2022/05/24 05:52:18;;;;;;;4.60;2.25;;;17.40;99.90;;;17.41;100.00;99492.75;4986830;28;20047;-79
2022/05/24 05:54:45;;;;;;;2.85;2.30;;;17.50;99.90;;;17.46;100.00;99508.41;4969966;28;20054;-80
2022/05/24 05:57:13;;;;;;;2.53;2.33;;;17.40;99.90;;;17.27;100.00;99514.09;4972246;28;20061;-80
2022/05/24 05:59:40;;;;;;;4.45;1.70;;;17.70;99.90;;;17.13;100.00;99523.81;4977638;28;20042;-78
2022/05/24 06:02:07;;;;;;;2.70;1.52;;;17.30;99.90;;;16.86;100.00;99524.63;4977462;28;20055;-80
2022/05/24 06:04:35;;;;;;;1.00;0.95;;;17.10;99.90;;;16.63;100.00;99522.56;4972089;28;20089;-79
2022/05/24 06:07:03;;;;;;;2.35;0.90;;;16.90;99.90;;;16.32;100.00;99513.84;4975668;28;20572;-80
2022/05/24 06:09:31;;;;;;;3.40;1.25;;;;;;;16.34;100.00;99527.88;4974948;28;20053;-80
2022/05/24 06:11:59;;;;;;;2.90;0.88;;;;;;;16.29;100.00;99523.72;4973243;28;20055;-79
2022/05/24 06:14:27;;;;;;;2.03;1.02;;;;;;;16.26;100.00;99529.22;4990220;28;20073;-80
2022/05/24 06:17:17;;;;;;;1.55;0.80;;;;;;;16.13;100.00;99547.66;4987169;28;20047;-79
2022/05/24 06:19:45;;;;;;;1.38;0.88;;;16.40;99.90;;;16.07;100.00;99540.09;4973382;28;20051;-80
2022/05/24 06:22:13;;;;;;;1.50;0.90;;;16.30;99.90;;;16.16;100.00;99539.53;4969620;28;20145;-80
2022/05/24 06:24:40;;;;;;;0.73;0.60;;;16.40;99.90;;;16.14;100.00;99541.41;4955367;28;20117;-79
2022/05/24 06:27:07;;;;;;;0.80;0.77;;;17.50;99.90;;;16.18;100.00;99538.59;4988236;28;20078;-80
2022/05/24 06:29:36;;;;;;;0.43;0.43;;;16.10;99.90;;;16.23;100.00;99552.44;4974991;28;20051;-79
2022/05/24 06:32:04;;;;;;;2.08;1.13;;;16.20;99.90;;;16.24;100.00;99546.16;4977847;28;20051;-79
2022/05/24 06:34:32;;;;;;;0.82;0.70;;;;;;;16.21;100.00;99547.19;4976711;28;20134;-79
2022/05/24 06:36:59;;;;;;;0.88;0.63;;;16.30;99.90;;;16.24;100.00;99556.78;4971679;28;20051;-77
2022/05/24 06:39:30;;;;;;;0.88;0.60;;;;;;;16.15;100.00;99574.97;4986470;28;20062;-78
2022/05/24 06:42:00;;;;;;;1.15;0.77;;;;;;;16.20;100.00;99579.16;4985234;28;20142;-80
2022/05/24 06:44:33;;;;;;;1.08;0.75;;;;;;;16.30;100.00;99586.47;4988097;28;20157;-78
2022/05/24 06:47:01;;;;;;;0.75;0.70;;;;;;;16.38;100.00;99590.44;4972337;28;20202;-78
2022/05/24 06:49:28;;;;;;;2.10;0.75;;;;;;;16.33;100.00;99590.75;4987658;28;20169;-78
2022/05/24 06:51:56;;;;;;;0.95;0.60;;;;;;;16.48;100.00;99596.06;4971847;28;20496;-79
2022/05/24 06:54:24;;;;;;;1.15;0.80;;;;;;;16.54;100.00;99606.31;4988257;28;20074;-78
2022/05/24 06:56:52;;;;;;;5.50;0.90;;;;;;;16.54;100.00;99608.97;4987412;28;20050;-79
2022/05/24 07:02:25;;;;;;;0.68;0.68;;;16.60;99.90;;;16.55;100.00;99643.41;4972604;28;20452;-78
2022/05/24 07:05:08;;;;;;;1.23;1.05;;;18.40;99.90;;;16.49;100.00;99648.22;4971632;28;20101;-78
2022/05/24 07:07:36;;;;;;;1.25;0.68;;;16.60;99.90;;;16.40;100.00;99655.78;4979903;28;20078;-79
2022/05/24 07:10:08;;;;;;;2.78;0.90;;;16.50;99.90;;;16.27;100.00;99663.63;4972051;28;20468;-79
2022/05/24 07:12:35;;;;;;;1.00;0.90;;;;;;;16.29;100.00;99669.69;4973637;28;20054;-78
2022/05/24 07:15:03;;;;;;;1.00;0.90;;;16.40;99.90;;;16.27;100.00;99686.66;4974951;28;20072;-79
2022/05/24 07:17:30;;;;;;;2.58;1.00;;;;;;;16.27;100.00;99695.47;4972528;28;20074;-79
2022/05/24 07:19:57;;;;;;;1.42;1.10;;;16.50;99.90;;;16.16;100.00;99687.28;4987553;28;20200;-81
2022/05/24 07:22:25;;;;;;;2.38;0.98;;;;;;;16.16;100.00;99680.19;4973392;28;20066;-79
2022/05/24 07:24:53;;;;;;;1.48;1.13;;;;;;;16.01;100.00;99675.78;4991433;28;20051;-81
2022/05/24 07:27:22;;;;;;;3.10;1.00;;;16.10;99.90;;;16.11;100.00;99678.75;4990330;28;20079;-81
2022/05/24 07:29:50;;;;;;;2.38;1.13;;;16.20;99.90;;;16.05;100.00;99679.94;4956266;28;20142;-79
2022/05/24 07:32:17;;;;;;;2.80;1.00;;;;;;;16.15;100.00;99683.75;4972957;28;20074;-81
2022/05/24 07:34:45;;;;;;;2.97;1.30;;;;;;;16.14;100.00;99690.00;4972038;28;20061;-81
2022/05/24 07:37:17;;;;;;;2.63;1.30;;;16.20;99.90;;;16.10;100.00;99688.50;4972348;28;20759;-80
2022/05/24 07:39:44;;;;;;;2.42;1.45;;;;;;;16.08;100.00;99701.00;4971643;28;20061;-79
2022/05/24 07:47:45;;;;;;;1.65;1.10;;;;;;;16.25;100.00;99696.50;4972404;28;20047;-78
2022/05/24 07:50:12;;;;;;;1.75;0.93;;;;;;;16.34;100.00;99687.16;4971297;28;20047;-80
2022/05/24 07:52:40;;;;;;;4.72;1.88;;;;;;;16.45;100.00;99685.56;4988157;28;20051;-77
2022/05/24 07:55:07;;;;;;;1.30;0.90;;;;;;;16.62;100.00;99694.31;4988315;28;20058;-79
2022/05/24 07:57:37;;;;;;;2.58;1.05;;;;;;;16.79;100.00;99684.50;4973866;28;20043;-79
2022/05/24 08:00:07;;;;;;;2.58;0.95;;;16.70;99.90;;;16.75;100.00;99702.41;4988429;28;20133;-79
2022/05/24 08:02:40;;;;;;;1.20;1.00;;;;;;;16.57;100.00;99705.22;4972781;28;20043;-79
2022/05/24 08:05:10;;;;;;;2.00;1.38;;;16.70;99.90;;;16.49;100.00;99696.03;4988585;28;20054;-81
2022/05/24 08:07:38;;;;;;;2.22;1.65;;;;;;;16.66;100.00;99703.81;4973096;28;20113;-79
2022/05/24 08:10:06;;;;;;;1.98;1.30;;;;;;;16.58;100.00;99706.06;4973339;28;20459;-80
2022/05/24 08:12:38;;;;;;;2.50;0.80;;;;;;;16.62;100.00;99706.75;4972718;28;20089;-80
2022/05/24 08:15:06;;;;;;;1.88;0.90;;;16.70;99.90;;;16.65;100.00;99715.41;4988369;28;20103;-80
2022/05/24 08:17:34;;;;;;;4.97;1.15;;;;;;;16.57;100.00;99736.22;4972551;28;20046;-77
2022/05/24 08:20:01;;;;;;;2.55;1.00;;;;;;;16.60;100.00;99696.22;4973569;28;20047;-79
2022/05/24 08:22:28;;;;;;;1.20;1.10;;;16.80;99.90;;;16.72;100.00;99697.28;4973790;28;20062;-79
2022/05/24 08:24:56;;;;;;;3.67;1.00;;;;;;;16.82;100.00;99711.72;4956884;28;20081;-78
2022/05/24 08:27:23;;;;;;;0.75;0.75;;;;;;;16.85;100.00;99700.88;4973996;28;20057;-79
2022/05/24 08:29:51;;;;;;;2.83;1.17;;;;;;;16.90;100.00;99703.28;4971036;28;20043;-79
2022/05/24 08:32:18;;;;;;;2.13;1.10;;;;;;;17.20;100.00;99705.00;4970810;28;20054;-78
2022/05/24 08:34:48;;;;;;;1.92;1.35;;;;;;;17.42;100.00;99709.00;4955285;28;20146;-79
2022/05/24 08:37:16;;;;;;;0.93;0.90;;;;;;;17.57;100.00;99708.03;4971380;28;20098;-78
2022/05/24 08:39:44;;;;;;;1.48;0.93;;;;;;;17.43;100.00;99700.06;4987262;28;20074;-77
2022/05/24 08:42:37;;;;;;;1.30;0.88;;;17.50;99.10;;;17.52;100.00;99711.94;4970911;28;20050;-80
2022/05/24 08:48:23;;;;;;;2.17;0.90;;;17.50;98.30;;;17.53;100.00;99733.09;4970769;28;20054;-78
2022/05/24 08:51:04;;;;;;;2.63;0.93;;;16.50;98.20;;;17.65;100.00;99735.94;4973909;28;20097;-80
2022/05/24 08:53:37;;;;;;;3.38;1.00;;;17.60;98.10;;;17.76;100.00;99730.78;4972363;28;20290;-79
2022/05/24 08:56:12;;;;;;;1.42;0.88;;;17.70;98.20;;;17.99;100.00;99715.97;4972616;28;20051;-81
2022/05/24 08:58:51;;;;;;;1.00;0.90;;;17.80;98.40;;;17.99;100.00;99734.59;4972769;28;20054;-78
2022/05/24 09:01:33;;;;;;;1.50;0.90;;;17.90;97.30;;;17.85;100.00;99722.19;4973402;28;20441;-80
2022/05/24 09:04:10;;;;;;;0.80;0.80;;;17.70;97.20;;;17.89;100.00;99714.88;4959006;28;20114;-78
2022/05/24 09:07:00;;;;;;;1.15;1.00;;;17.90;99.70;;;17.91;100.00;99726.25;4946619;28;20042;-78
2022/05/24 09:09:42;;;;;;;2.25;1.10;;;17.90;97.50;;;18.10;100.00;99723.28;4975153;28;20077;-81
2022/05/24 09:12:33;;;;;;;2.53;1.38;;;18.00;95.90;;;18.10;100.00;99714.44;4979394;28;20522;-81
2022/05/24 09:15:26;;;;;;;1.02;0.82;;;18.00;96.00;;;18.00;100.00;99719.47;4978501;28;20125;-81
2022/05/24 09:18:36;;;;;;;1.05;0.80;;;18.00;96.30;;;18.21;100.00;99722.56;4979444;28;20051;-82
2022/05/24 09:21:04;;;;;;;1.55;0.90;;;18.10;96.30;;;18.26;100.00;99716.94;4990622;28;20133;-81
2022/05/24 09:23:41;;;;;;;1.33;0.98;;;18.10;96.60;;;18.25;100.00;99731.22;4973450;28;20747;-81
2022/05/24 09:26:13;;;;;;;4.70;1.05;;;16.70;95.80;;;18.22;100.00;99726.09;4973910;28;20055;-81
2022/05/24 09:28:57;;;;;;;2.42;1.33;;;18.20;96.10;;;18.52;100.00;99727.66;4975983;28;20118;-82
2022/05/24 09:31:46;;;;;;;1.50;1.10;;;18.50;98.30;;;18.64;100.00;99724.16;4978655;28;20055;-82
2022/05/24 09:34:19;;;;;;;2.17;0.90;;;18.50;96.00;;;18.59;100.00;99733.44;4980991;28;20055;-82
2022/05/24 09:37:03;;;;;;;1.88;1.00;;;18.80;97.30;;;18.55;100.00;99744.28;4973841;28;20046;-82
2022/05/24 09:39:54;;;;;;;2.05;1.02;;;18.70;95.60;;;18.70;100.00;99715.75;4973968;28;20073;-81
2022/05/24 09:42:36;;;;;;;2.05;1.40;;;18.80;95.40;;;18.90;100.00;99731.34;4983382;28;20416;-83
2022/05/24 09:45:09;;;;;;;1.85;0.90;;;18.80;95.40;;;19.25;100.00;99734.19;4981546;28;20051;-81
2022/05/24 09:47:49;;;;;;;1.42;0.80;;;19.10;94.80;;;19.20;100.00;99728.34;4979257;28;20066;-82
2022/05/24 09:50:33;;;;;;;1.23;0.63;;;19.20;94.30;;;19.30;100.00;99735.72;4976349;28;20062;-83
2022/05/24 09:53:05;;;;;;;1.33;1.10;;;19.20;92.80;;;19.15;94.91;99732.31;4977169;28;20286;-82
2022/05/24 09:55:38;;;;;;;2.17;1.00;;;19.10;93.60;;;19.09;100.00;99739.78;4979127;28;20102;-82
2022/05/24 09:58:25;;;;;;;1.95;0.90;;;19.00;96.90;;;19.03;99.55;99740.19;4979470;28;20070;-81
2022/05/24 10:01:10;;;;;;;1.30;0.70;;;19.00;93.10;;;18.98;98.40;99755.63;4976828;28;20138;-84
2022/05/24 10:03:49;;;;;;;2.90;0.70;;;19.00;93.60;;;19.16;98.88;99745.53;4979432;28;20134;-81
2022/05/24 10:06:29;;;;;;;1.42;0.80;;;19.00;98.20;;;19.18;99.42;99735.63;4956114;28;20031;-81
2022/05/24 10:09:00;;;;;;;0.80;0.70;;;;;;;19.25;97.83;99744.88;4954207;28;20049;-81
2022/05/24 10:12:08;;;;;;;0.60;0.60;;;19.20;93.20;;;19.41;96.16;99749.13;4954434;28;20083;-82
2022/05/24 10:15:12;;;;;;;4.45;0.85;;;19.30;93.00;;;19.35;97.01;99749.56;4963163;29;20047;-82
2022/05/24 10:18:14;;;;;;;0.77;0.57;;;19.20;93.10;;;19.13;97.93;99754.59;4960704;29;20051;-82
2022/05/24 10:21:12;;;;;;;0.80;0.70;;;19.20;93.10;;;19.29;98.71;99756.19;4955440;29;20481;-81
2022/05/24 10:24:17;;;;;;;0.77;0.65;;;19.10;93.30;;;19.23;98.77;99764.63;4953392;28;20574;-78
2022/05/24 10:27:49;;;;;;;1.10;1.00;;;19.10;93.30;;;19.24;100.00;99761.00;4964831;28;20047;-78
2022/05/24 10:30:24;;;;;;;2.50;0.80;;;19.10;93.60;;;19.32;100.00;99757.78;4949214;28;20133;-78
2022/05/24 10:39:19;;;;;;;1.63;0.73;;;19.50;92.00;;;19.75;85.04;99767.22;4963651;28;20105;-82
2022/05/24 10:42:33;;;;;;;1.65;0.80;;;19.50;90.40;;;19.77;73.98;99752.78;4966520;28;20043;-79
2022/05/24 10:45:16;;;;;;;0.90;0.90;;;19.50;90.60;;;19.77;70.90;99755.47;4944996;28;20114;-79
2022/05/24 10:48:03;;;;;;;1.55;0.80;;;20.00;89.60;;;19.88;68.11;99748.47;4971027;28;20051;-78
2022/05/24 10:50:46;;;;;;;1.15;0.85;;;19.80;87.30;;;19.97;64.71;99750.50;4953685;28;20049;-77
2022/05/24 10:53:41;;;;;;;2.72;0.73;;;19.80;87.10;;;20.00;65.62;99746.78;4969577;28;20063;-78
2022/05/24 10:56:44;;;;;;;2.88;0.90;;;19.90;88.20;;;20.32;66.03;99741.69;4967129;28;20054;-78
2022/05/24 10:59:21;;;;;;;1.30;0.68;;;20.10;86.30;;;20.42;62.06;99767.72;4972040;28;20063;-79
2022/05/24 11:01:59;;;;;;;0.80;0.80;;;20.10;83.20;;;20.20;57.74;99758.63;4971927;28;20039;-79
2022/05/24 11:04:42;;;;;;;2.53;0.98;;;20.00;82.30;;;20.18;56.26;99752.56;4972074;28;20050;-83
2022/05/24 11:07:16;;;;;;;1.02;0.77;;;20.10;82.90;;;20.27;57.92;99743.88;4979642;28;20056;-82
2022/05/24 11:10:03;;;;;;;2.38;0.70;;;20.10;82.80;;;20.28;58.89;99756.25;4978913;28;20569;-84
2022/05/24 11:12:40;;;;;;;1.58;1.00;;;20.10;84.10;;;20.17;63.32;99753.53;4978640;28;20047;-81
2022/05/24 11:15:39;;;;;;;1.08;0.65;;;20.10;84.50;;;20.04;67.13;99758.94;4978632;28;20042;-83
2022/05/24 11:18:22;;;;;;;2.10;0.68;;;20.20;91.20;;;20.62;65.47;99753.69;4964305;28;20071;-79
2022/05/24 11:21:15;;;;;;;3.70;0.70;;;20.30;82.10;;;20.46;57.34;99759.38;4978212;28;20447;-83
2022/05/24 11:24:08;;;;;;;1.20;0.80;;;20.40;82.00;;;20.53;58.73;99763.28;4979904;28;20085;-83
2022/05/24 11:26:39;;;;;;;4.78;0.95;;;20.50;80.80;;;20.47;56.21;99760.22;4978775;28;20046;-83
2022/05/24 11:29:41;;;;;;;0.93;0.60;;;20.40;81.50;;;20.67;58.14;99754.19;4978185;28;20105;-81
2022/05/24 11:32:11;;;;;;;2.05;0.65;;;20.50;89.20;;;20.79;55.41;99755.09;4977172;28;20524;-81
2022/05/24 11:34:55;;;;;;;1.23;0.75;;;20.60;80.90;;;20.83;56.25;99756.59;4976810;28;20051;-82
2022/05/24 11:37:35;;;;;;;3.60;0.80;;;20.60;80.70;;;21.04;56.78;99752.38;4977216;28;20035;-82
2022/05/24 11:40:28;;;;;;;0.93;0.75;;;20.80;80.30;;;21.13;53.98;99758.81;4977102;28;20043;-82
2022/05/24 11:43:01;;;;;;;0.57;0.55;;;20.90;79.70;;;21.21;55.69;99748.34;4978237;28;20045;-80